createdAt,value
2022-11-24T00:01:07.312Z,2.58
2022-11-24T00:03:34.400Z,2.75
2022-11-24T00:06:15.185Z,2.40
2022-11-24T00:08:44.192Z,2.58
2022-11-24T00:11:13.725Z,3.03
2022-11-24T00:13:40.503Z,2.28
2022-11-24T00:16:24.251Z,2.50
2022-11-24T00:18:53.080Z,3.22
2022-11-24T00:21:20.565Z,2.45
2022-11-24T00:23:47.724Z,3.13
2022-11-24T00:26:16.606Z,2.30
2022-11-24T00:28:44.389Z,2.40
2022-11-24T00:31:35.377Z,2.38
2022-11-24T00:34:04.508Z,2.95
2022-11-24T00:36:32.844Z,2.35
2022-11-24T00:39:01.403Z,2.65
2022-11-24T00:41:28.958Z,2.42
2022-11-24T00:43:56.307Z,2.35
2022-11-24T00:46:25.183Z,2.30
2022-11-24T00:48:52.268Z,2.92
2022-11-24T00:51:20.761Z,1.92
2022-11-24T00:53:47.476Z,2.70
2022-11-24T00:56:14.384Z,2.67
2022-11-24T00:58:41.234Z,2.75
2022-11-24T01:01:11.588Z,3.10
2022-11-24T01:03:38.580Z,3.17
2022-11-24T01:06:12.242Z,2.60
2022-11-24T01:08:39.859Z,3.00
2022-11-24T01:11:07.571Z,2.13
2022-11-24T01:13:34.264Z,2.40
2022-11-24T01:16:00.983Z,2.63
2022-11-24T01:18:27.672Z,2.63
2022-11-24T01:20:54.417Z,2.25
2022-11-24T01:23:21.115Z,2.28
2022-11-24T01:25:47.786Z,2.38
2022-11-24T01:28:14.535Z,3.50
2022-11-24T01:30:41.284Z,2.92
2022-11-24T01:33:08.035Z,2.20
2022-11-24T01:35:34.711Z,2.20
2022-11-24T01:38:01.473Z,2.00
2022-11-24T01:40:28.134Z,2.80
2022-11-24T01:42:54.848Z,2.17
2022-11-24T01:45:41.059Z,2.38
2022-11-24T01:48:23.201Z,2.42
2022-11-24T01:51:05.445Z,3.25
2022-11-24T01:53:32.164Z,2.58
2022-11-24T01:55:59.156Z,2.55
2022-11-24T01:58:27.530Z,3.33
2022-11-24T02:00:54.251Z,2.45
2022-11-24T02:03:25.218Z,2.33
2022-11-24T02:06:00.210Z,2.55
2022-11-24T02:08:33.619Z,2.50
2022-11-24T02:11:02.381Z,2.53
2022-11-24T02:13:29.383Z,2.47
2022-11-24T02:15:56.067Z,2.38
2022-11-24T02:18:22.881Z,2.40
2022-11-24T02:20:49.629Z,2.05
2022-11-24T02:23:22.571Z,2.80
2022-11-24T02:26:15.832Z,2.40
2022-11-24T02:28:42.589Z,3.22
2022-11-24T02:31:09.361Z,2.10
2022-11-24T02:33:36.784Z,2.70
2022-11-24T02:36:03.779Z,2.40
2022-11-24T02:38:31.907Z,2.70
2022-11-24T02:41:00.804Z,2.47
2022-11-24T02:43:28.943Z,2.65
2022-11-24T02:45:55.610Z,2.33
2022-11-24T02:48:22.345Z,2.20
2022-11-24T02:50:49.011Z,2.92
2022-11-24T02:53:15.677Z,2.67
2022-11-24T02:55:42.388Z,2.20
2022-11-24T02:58:09.019Z,2.42
2022-11-24T03:00:35.732Z,2.05
2022-11-24T03:03:02.880Z,2.08
2022-11-24T03:05:29.591Z,2.60
2022-11-24T03:07:56.402Z,2.38
2022-11-24T03:10:24.336Z,3.90
2022-11-24T03:12:51.021Z,3.63
2022-11-24T03:15:17.791Z,2.35
2022-11-24T03:17:44.659Z,2.55
2022-11-24T03:20:11.618Z,2.22
2022-11-24T03:22:38.371Z,2.35
2022-11-24T03:25:05.334Z,2.67
2022-11-24T03:27:32.022Z,2.33
2022-11-24T03:29:58.719Z,2.42
2022-11-24T03:32:25.469Z,2.70
2022-11-24T03:34:52.365Z,2.28
2022-11-24T03:37:19.129Z,3.15
2022-11-24T03:39:45.771Z,3.55
2022-11-24T03:42:12.871Z,2.63
2022-11-24T03:44:39.548Z,2.45
2022-11-24T03:47:06.212Z,2.00
2022-11-24T03:49:33.306Z,1.95
2022-11-24T03:52:03.873Z,2.42
2022-11-24T03:54:33.730Z,2.38
2022-11-24T03:57:00.635Z,2.45
2022-11-24T03:59:27.266Z,2.47
2022-11-24T04:01:54.015Z,2.28
2022-11-24T04:04:20.772Z,2.13
2022-11-24T04:06:47.546Z,2.85
2022-11-24T04:09:14.213Z,2.67
2022-11-24T04:11:59.553Z,2.25
2022-11-24T04:14:26.299Z,2.67
2022-11-24T04:16:52.956Z,3.17
2022-11-24T04:19:19.588Z,5.15
2022-11-24T04:21:46.269Z,4.25
2022-11-24T04:24:13.324Z,3.67
2022-11-24T04:26:40.048Z,3.67
2022-11-24T04:29:06.816Z,3.33
2022-11-24T04:31:33.565Z,2.63
2022-11-24T04:34:00.251Z,2.97
2022-11-24T04:36:26.883Z,2.42
2022-11-24T04:39:22.784Z,2.00
2022-11-24T04:41:40.729Z,1.98
2022-11-24T04:44:07.400Z,2.33
2022-11-24T04:46:34.058Z,2.72
2022-11-24T04:49:01.395Z,2.65
2022-11-24T04:51:28.055Z,3.10
2022-11-24T04:53:54.748Z,4.32
2022-11-24T04:56:21.461Z,3.75
2022-11-24T04:58:48.938Z,3.40
2022-11-24T05:01:15.631Z,3.97
2022-11-24T05:03:42.476Z,4.13
2022-11-24T05:06:09.101Z,4.88
2022-11-24T05:08:35.822Z,4.78
2022-11-24T05:11:06.452Z,5.55
2022-11-24T05:13:33.172Z,6.93
2022-11-24T05:16:01.198Z,4.45
2022-11-24T05:18:28.882Z,4.72
2022-11-24T05:20:55.775Z,2.75
2022-11-24T05:23:22.516Z,2.78
2022-11-24T05:25:49.918Z,2.75
2022-11-24T05:28:18.104Z,1.90
2022-11-24T05:30:45.396Z,2.05
2022-11-24T05:33:22.852Z,2.42
2022-11-24T05:35:50.250Z,1.90
2022-11-24T05:38:17.761Z,2.55
2022-11-24T05:40:44.729Z,2.10
2022-11-24T05:43:12.451Z,1.85
2022-11-24T05:45:39.498Z,1.98
2022-11-24T05:48:07.681Z,3.30
2022-11-24T05:50:35.215Z,2.08
2022-11-24T05:53:12.910Z,2.00
2022-11-24T05:55:41.248Z,2.05
2022-11-24T05:58:08.861Z,2.63
2022-11-24T06:00:42.754Z,2.03
2022-11-24T06:03:10.776Z,2.40
2022-11-24T06:05:37.834Z,1.90
2022-11-24T06:08:04.975Z,2.25
2022-11-24T06:10:31.699Z,1.77
2022-11-24T06:12:58.376Z,1.83
2022-11-24T06:15:25.055Z,2.28
2022-11-24T06:17:58.375Z,2.15
2022-11-24T06:20:31.194Z,2.40
2022-11-24T06:23:00.123Z,2.05
2022-11-24T06:25:28.221Z,2.08
2022-11-24T06:27:55.005Z,2.10
2022-11-24T06:30:21.657Z,2.35
2022-11-24T06:32:50.034Z,2.05
2022-11-24T06:35:16.981Z,1.90
2022-11-24T06:37:43.683Z,1.70
2022-11-24T06:40:10.644Z,3.40
2022-11-24T06:42:37.692Z,2.72
2022-11-24T06:45:08.769Z,2.05
2022-11-24T06:47:36.490Z,2.33
2022-11-24T06:50:05.190Z,2.97
2022-11-24T06:52:31.873Z,3.15
2022-11-24T06:54:58.638Z,3.70
2022-11-24T06:57:26.221Z,3.30
2022-11-24T06:59:53.008Z,3.22
2022-11-24T07:02:19.726Z,2.40
2022-11-24T07:04:46.382Z,2.72
2022-11-24T07:07:13.086Z,2.63
2022-11-24T07:09:39.764Z,3.17
2022-11-24T07:12:06.733Z,2.35
2022-11-24T07:14:33.752Z,2.30
2022-11-24T07:17:02.384Z,2.38
2022-11-24T07:19:29.121Z,3.03
2022-11-24T07:21:55.845Z,2.50
2022-11-24T07:24:22.528Z,2.40
2022-11-24T07:26:49.176Z,2.70
2022-11-24T07:29:16.007Z,2.00
2022-11-24T07:31:43.057Z,2.80
2022-11-24T07:34:09.802Z,3.22
2022-11-24T07:36:36.481Z,5.53
2022-11-24T07:39:06.391Z,4.28
2022-11-24T07:41:33.117Z,3.42
2022-11-24T07:43:59.822Z,15.73
2022-11-24T07:46:26.593Z,22.65
2022-11-24T07:48:53.285Z,22.15
2022-11-24T07:51:20.052Z,4.65
2022-11-24T07:53:46.749Z,3.25
2022-11-24T07:56:13.559Z,5.10
2022-11-24T07:58:40.554Z,2.58
2022-11-24T08:01:11.358Z,2.45
2022-11-24T08:03:38.252Z,18.25
2022-11-24T08:06:23.592Z,19.50
2022-11-24T08:08:51.752Z,13.30
2022-11-24T08:11:18.492Z,14.07
2022-11-24T08:13:45.464Z,10.13
2022-11-24T08:16:15.129Z,7.43
2022-11-24T08:18:42.123Z,5.88
2022-11-24T08:21:12.785Z,5.85
2022-11-24T08:23:39.505Z,7.50
2022-11-24T08:26:09.046Z,5.57
2022-11-24T08:28:36.446Z,3.35
2022-11-24T08:31:08.861Z,2.08
2022-11-24T08:33:35.789Z,2.75
2022-11-24T08:36:11.170Z,2.38
2022-11-24T08:38:38.462Z,2.03
2022-11-24T08:41:10.803Z,1.83
2022-11-24T08:43:37.717Z,1.80
2022-11-24T08:46:13.808Z,3.10
2022-11-24T08:48:41.442Z,2.05
2022-11-24T08:51:10.956Z,2.08
2022-11-24T08:53:37.953Z,2.10
2022-11-24T08:56:05.431Z,2.05
2022-11-24T08:58:34.035Z,2.72
2022-11-24T09:01:12.487Z,3.15
2022-11-24T09:03:42.284Z,3.83
2022-11-24T09:06:10.640Z,2.38
2022-11-24T09:08:38.056Z,2.38
2022-11-24T09:11:15.404Z,1.55
2022-11-24T09:13:42.676Z,2.00
2022-11-24T09:16:12.847Z,1.90
2022-11-24T09:18:39.807Z,1.60
2022-11-24T09:21:07.941Z,2.22
2022-11-24T09:23:34.759Z,1.45
2022-11-24T09:26:10.845Z,2.05
2022-11-24T09:28:37.805Z,2.20
2022-11-24T09:31:06.220Z,1.58
2022-11-24T09:33:33.424Z,1.60
2022-11-24T09:36:00.284Z,1.67
2022-11-24T09:38:27.364Z,1.38
2022-11-24T09:40:57.232Z,1.40
2022-11-24T09:43:38.237Z,1.77
2022-11-24T09:46:13.885Z,1.75
2022-11-24T09:48:43.991Z,1.70
2022-11-24T09:51:12.688Z,1.50
2022-11-24T09:53:49.297Z,1.30
2022-11-24T09:56:22.155Z,1.20
2022-11-24T09:59:41.918Z,1.10
2022-11-24T10:02:13.245Z,1.40
2022-11-24T10:04:45.104Z,1.30
2022-11-24T10:07:16.987Z,1.30
2022-11-24T10:09:52.861Z,1.52
2022-11-24T10:12:28.280Z,1.10
2022-11-24T10:15:12.027Z,1.65
2022-11-24T10:18:03.435Z,1.17
2022-11-24T10:20:51.729Z,1.30
2022-11-24T10:23:38.404Z,1.23
2022-11-24T10:26:08.892Z,0.93
2022-11-24T10:28:43.980Z,1.85
2022-11-24T10:31:22.732Z,8.43
2022-11-24T10:33:50.053Z,3.50
2022-11-24T10:36:25.517Z,1.60
2022-11-24T10:39:05.009Z,1.52
2022-11-24T10:42:05.740Z,1.35
2022-11-24T10:44:32.430Z,1.77
2022-11-24T10:46:59.170Z,1.55
2022-11-24T10:49:28.377Z,1.55
2022-11-24T10:52:05.857Z,1.25
2022-11-24T10:54:33.145Z,1.13
2022-11-24T10:56:59.881Z,1.40
2022-11-24T10:59:32.904Z,2.85
2022-11-24T11:04:28.271Z,1.30
2022-11-24T11:07:09.222Z,1.27
2022-11-24T11:09:36.143Z,1.50
2022-11-24T11:12:42.553Z,1.00
2022-11-24T11:15:23.333Z,1.75
2022-11-24T11:17:52.407Z,1.00
2022-11-24T11:20:22.798Z,1.63
2022-11-24T11:27:18.686Z,1.50
2022-11-24T11:35:19.218Z,1.70
2022-11-24T11:37:47.518Z,1.85
2022-11-24T11:40:18.416Z,1.70
2022-11-24T11:43:02.229Z,3.58
2022-11-24T11:45:35.099Z,1.33
2022-11-24T11:48:01.840Z,1.65
2022-11-24T11:50:59.481Z,1.90
2022-11-24T11:53:45.982Z,2.13
2022-11-24T11:56:15.260Z,1.95
2022-11-24T11:59:06.550Z,2.55
2022-11-24T12:01:38.791Z,2.95
2022-11-24T12:04:26.027Z,1.90
2022-11-24T12:07:22.779Z,1.42
2022-11-24T12:10:16.976Z,1.92
2022-11-24T12:13:06.789Z,1.45
2022-11-24T12:15:51.414Z,2.08
2022-11-24T12:18:57.139Z,1.58
2022-11-24T12:21:26.830Z,2.03
2022-11-24T12:24:06.197Z,1.73
2022-11-24T12:26:53.612Z,1.80
2022-11-24T12:29:41.832Z,1.67
2022-11-24T12:32:43.290Z,1.73
2022-11-24T12:35:34.830Z,2.67
2022-11-24T12:38:14.976Z,2.20
2022-11-24T12:41:39.864Z,1.60
2022-11-24T12:43:52.959Z,1.38
2022-11-24T12:46:29.388Z,1.80
2022-11-24T12:49:08.485Z,2.13
2022-11-24T12:51:38.342Z,2.17
2022-11-24T12:54:10.121Z,1.85
2022-11-24T12:56:38.126Z,1.40
2022-11-24T12:59:40.034Z,3.20
2022-11-24T13:02:38.362Z,2.08
2022-11-24T13:05:20.152Z,1.75
2022-11-24T13:07:55.353Z,2.58
2022-11-24T13:13:13.006Z,1.67
2022-11-24T13:16:34.504Z,2.30
2022-11-24T13:18:56.829Z,2.65
2022-11-24T13:21:35.855Z,2.22
2022-11-24T13:24:21.232Z,1.75
2022-11-24T13:26:50.714Z,2.22
2022-11-24T13:29:52.743Z,2.00
2022-11-24T13:32:19.491Z,1.80
2022-11-24T13:34:58.064Z,2.38
2022-11-24T13:37:35.444Z,2.67
2022-11-24T13:40:12.181Z,3.03
2022-11-24T13:43:03.255Z,2.70
2022-11-24T13:45:38.868Z,2.78
2022-11-24T13:48:21.642Z,3.63
2022-11-24T13:53:34.777Z,3.53
2022-11-24T13:56:13.181Z,3.28
2022-11-24T13:58:46.581Z,2.55
2022-11-24T14:01:28.467Z,2.85
2022-11-24T14:04:33.644Z,2.80
2022-11-24T14:07:09.781Z,4.25
2022-11-24T14:09:42.256Z,2.70
2022-11-24T14:12:17.149Z,3.53
2022-11-24T14:14:45.808Z,3.45
2022-11-24T14:17:25.032Z,3.88
2022-11-24T14:19:53.549Z,4.30
2022-11-24T14:22:36.332Z,3.88
2022-11-24T14:25:03.998Z,2.97
2022-11-24T14:27:33.161Z,2.40
2022-11-24T14:30:17.507Z,3.25
2022-11-24T14:32:55.725Z,3.45
2022-11-24T14:35:27.119Z,3.10
2022-11-24T14:37:53.958Z,2.60
2022-11-24T14:40:55.980Z,3.70
2022-11-24T14:43:32.203Z,2.50
2022-11-24T14:46:10.370Z,2.35
2022-11-24T14:48:39.041Z,2.50
2022-11-24T14:51:20.333Z,2.88
2022-11-24T14:53:49.568Z,2.47
2022-11-24T14:56:23.560Z,2.75
2022-11-24T14:58:50.609Z,2.25
2022-11-24T15:01:21.905Z,2.40
2022-11-24T15:04:13.052Z,2.85
2022-11-24T15:06:47.328Z,2.63
2022-11-24T15:09:23.988Z,2.00
2022-11-24T15:11:50.937Z,2.58
2022-11-24T15:14:33.431Z,2.47
2022-11-24T15:17:00.499Z,2.57
2022-11-24T15:19:32.618Z,2.53
2022-11-24T15:21:59.377Z,1.90
2022-11-24T15:24:26.080Z,2.50
2022-11-24T15:27:00.444Z,2.63
2022-11-24T15:29:27.207Z,2.85
2022-11-24T15:31:53.941Z,2.40
2022-11-24T15:34:20.784Z,2.88
2022-11-24T15:36:47.472Z,5.63
2022-11-24T15:39:14.160Z,3.65
2022-11-24T15:41:41.831Z,2.28
2022-11-24T15:44:09.480Z,2.53
2022-11-24T15:46:38.688Z,2.75
2022-11-24T15:49:07.549Z,2.03
2022-11-24T15:51:35.756Z,1.88
2022-11-24T15:54:02.669Z,1.98
2022-11-24T15:56:34.208Z,1.95
2022-11-24T15:59:01.459Z,1.80
2022-11-24T16:01:31.306Z,2.47
2022-11-24T16:03:58.174Z,2.65
2022-11-24T16:06:25.674Z,2.72
2022-11-24T16:08:53.695Z,3.45
2022-11-24T16:11:21.036Z,3.80
2022-11-24T16:13:52.490Z,3.40
2022-11-24T16:16:20.451Z,2.22
2022-11-24T16:18:47.179Z,3.92
2022-11-24T16:21:14.068Z,3.00
2022-11-24T16:23:40.970Z,3.85
2022-11-24T16:26:07.772Z,2.95
2022-11-24T16:28:34.594Z,3.65
2022-11-24T16:31:01.633Z,2.70
2022-11-24T16:33:29.356Z,3.20
2022-11-24T16:35:56.101Z,2.75
2022-11-24T16:38:22.831Z,2.85
2022-11-24T16:40:58.541Z,3.28
2022-11-24T16:43:25.339Z,2.55
2022-11-24T16:46:15.672Z,2.42
2022-11-24T16:48:43.096Z,2.88
2022-11-24T16:51:10.245Z,2.17
2022-11-24T16:53:37.155Z,1.98
2022-11-24T16:56:03.890Z,1.90
2022-11-24T16:58:30.604Z,1.80
2022-11-24T17:01:04.776Z,2.30
2022-11-24T17:03:38.919Z,3.03
2022-11-24T17:06:11.200Z,2.42
2022-11-24T17:08:39.967Z,2.70
2022-11-24T17:11:23.537Z,2.08
2022-11-24T17:13:50.834Z,1.98
2022-11-24T17:16:20.434Z,1.95
2022-11-24T17:18:47.195Z,2.53
2022-11-24T17:21:19.904Z,2.40
2022-11-24T17:23:46.952Z,7.25
2022-11-24T17:26:15.392Z,4.60
2022-11-24T17:28:42.244Z,2.88
2022-11-24T17:31:09.638Z,3.13
2022-11-24T17:33:36.574Z,3.58
2022-11-24T17:36:04.623Z,2.97
2022-11-24T17:38:31.301Z,3.10
2022-11-24T17:40:58.349Z,3.75
2022-11-24T17:43:25.150Z,2.53
2022-11-24T17:45:56.295Z,2.90
2022-11-24T17:48:23.469Z,3.40
2022-11-24T17:51:01.445Z,3.38
2022-11-24T17:53:31.465Z,2.38
2022-11-24T17:56:02.065Z,5.43
2022-11-24T18:01:00.334Z,5.30
2022-11-24T18:03:32.428Z,5.35
2022-11-24T18:06:10.850Z,2.95
2022-11-24T18:08:39.017Z,2.97
2022-11-24T18:11:07.428Z,2.70
2022-11-24T18:13:55.801Z,2.80
2022-11-24T18:16:21.288Z,2.25
2022-11-24T18:18:51.075Z,2.63
2022-11-24T18:21:18.109Z,2.30
2022-11-24T18:23:47.174Z,4.15
2022-11-24T18:26:18.243Z,4.40
2022-11-24T18:28:45.588Z,3.80
2022-11-24T18:31:18.530Z,3.28
2022-11-24T18:33:45.279Z,2.72
2022-11-24T18:36:16.964Z,5.10
2022-11-24T18:38:46.066Z,4.70
2022-11-24T18:41:14.729Z,3.08
2022-11-24T18:43:42.633Z,3.90
2022-11-24T18:46:15.629Z,5.80
2022-11-24T18:48:43.168Z,5.32
2022-11-24T18:51:14.936Z,5.10
2022-11-24T18:53:43.555Z,4.55
2022-11-24T18:56:15.988Z,4.22
2022-11-24T18:58:43.306Z,4.60
2022-11-24T19:01:20.341Z,3.58
2022-11-24T19:03:49.628Z,3.70
2022-11-24T19:06:24.641Z,3.58
2022-11-24T19:08:54.218Z,3.20
2022-11-24T19:11:26.651Z,2.92
2022-11-24T19:13:53.693Z,2.75
2022-11-24T19:16:21.473Z,5.03
2022-11-24T19:18:53.683Z,5.47
2022-11-24T19:21:21.695Z,7.00
2022-11-24T19:23:48.930Z,4.38
2022-11-24T19:26:16.415Z,6.55
2022-11-24T19:28:43.573Z,6.50
2022-11-24T19:31:12.917Z,6.70
2022-11-24T19:33:40.264Z,5.82
2022-11-24T19:36:13.645Z,6.28
2022-11-24T19:38:41.206Z,6.38
2022-11-24T19:41:10.793Z,6.05
2022-11-24T19:43:37.853Z,7.05
2022-11-24T19:46:06.762Z,7.22
2022-11-24T19:48:40.700Z,6.25
2022-11-24T19:51:10.234Z,5.45
2022-11-24T19:53:38.061Z,6.03
2022-11-24T19:56:06.655Z,6.43
2022-11-24T19:58:34.114Z,6.80
2022-11-24T20:01:24.579Z,5.95
2022-11-24T20:04:00.194Z,7.47
2022-11-24T20:06:29.405Z,6.70
2022-11-24T20:08:58.412Z,5.25
2022-11-24T20:11:25.203Z,6.85
2022-11-24T20:13:52.240Z,6.00
2022-11-24T20:16:26.199Z,4.85
2022-11-24T20:18:54.674Z,6.13
2022-11-24T20:21:23.587Z,4.05
2022-11-24T20:23:57.861Z,4.60
2022-11-24T20:26:25.891Z,4.20
2022-11-24T20:28:54.558Z,4.63
2022-11-24T20:31:30.782Z,4.65
2022-11-24T20:33:57.637Z,5.43
2022-11-24T20:36:25.999Z,5.80
2022-11-24T20:38:53.183Z,5.85
2022-11-24T20:41:25.380Z,5.22
2022-11-24T20:43:53.880Z,5.53
2022-11-24T20:46:22.924Z,6.50
2022-11-24T20:48:49.904Z,5.82
2022-11-24T20:51:27.845Z,5.43
2022-11-24T20:53:57.511Z,6.53
2022-11-24T20:56:30.052Z,5.82
2022-11-24T20:58:57.361Z,5.97
2022-11-24T21:01:30.884Z,7.22
2022-11-24T21:03:59.456Z,7.13
2022-11-24T21:06:27.948Z,9.18
2022-11-24T21:09:00.489Z,11.27
2022-11-24T21:11:30.476Z,9.68
2022-11-24T21:13:57.661Z,11.02
2022-11-24T21:16:32.688Z,8.70
2022-11-24T21:19:01.415Z,4.72
2022-11-24T21:21:36.220Z,7.43
2022-11-24T21:24:09.867Z,10.38
2022-11-24T21:26:37.636Z,10.02
2022-11-24T21:29:05.200Z,9.63
2022-11-24T21:31:34.991Z,8.98
2022-11-24T21:34:01.837Z,7.60
2022-11-24T21:36:28.585Z,6.32
2022-11-24T21:38:57.077Z,7.53
2022-11-24T21:41:25.810Z,6.55
2022-11-24T21:43:55.536Z,6.90
2022-11-24T21:46:22.403Z,9.07
2022-11-24T21:48:49.312Z,7.80
2022-11-24T21:51:18.004Z,7.30
2022-11-24T21:53:45.282Z,7.38
2022-11-24T21:56:14.106Z,6.95
2022-11-24T21:58:45.796Z,8.07
2022-11-24T22:01:13.070Z,6.88
2022-11-24T22:03:39.860Z,7.18
2022-11-24T22:06:06.992Z,6.95
2022-11-24T22:08:33.962Z,7.80
2022-11-24T22:11:04.518Z,8.00
2022-11-24T22:13:31.334Z,9.93
2022-11-24T22:16:03.878Z,10.73
2022-11-24T22:18:33.027Z,9.45
2022-11-24T22:21:00.314Z,10.38
2022-11-24T22:23:27.124Z,11.32
2022-11-24T22:25:53.777Z,10.82
2022-11-24T22:28:20.509Z,10.85
2022-11-24T22:30:47.176Z,10.65
2022-11-24T22:33:13.882Z,10.77
2022-11-24T22:35:40.597Z,10.63
2022-11-24T22:38:07.329Z,9.90
2022-11-24T22:40:34.052Z,9.85
2022-11-24T22:43:00.807Z,10.57
2022-11-24T22:45:27.778Z,9.43
2022-11-24T22:47:54.995Z,10.10
2022-11-24T22:50:21.701Z,9.27
2022-11-24T22:52:50.040Z,8.77
2022-11-24T22:55:16.732Z,7.63
2022-11-24T22:57:47.981Z,9.40
2022-11-24T23:00:15.731Z,11.02
2022-11-24T23:02:42.481Z,8.55
2022-11-24T23:05:09.369Z,9.48
2022-11-24T23:07:36.107Z,8.98
2022-11-24T23:10:03.147Z,9.43
2022-11-24T23:12:29.758Z,8.77
2022-11-24T23:14:56.490Z,7.35
2022-11-24T23:17:23.269Z,8.32
2022-11-24T23:19:50.231Z,8.02
2022-11-24T23:22:16.931Z,9.02
2022-11-24T23:24:43.707Z,7.95
2022-11-24T23:27:10.410Z,7.70
2022-11-24T23:29:37.076Z,6.97
2022-11-24T23:32:07.015Z,6.88
2022-11-24T23:34:34.072Z,6.78
2022-11-24T23:37:01.027Z,8.02
2022-11-24T23:39:27.709Z,7.68
2022-11-24T23:41:54.395Z,7.20
2022-11-24T23:44:21.129Z,7.72
2022-11-24T23:46:47.898Z,7.20
2022-11-24T23:49:14.642Z,6.78
2022-11-24T23:51:42.019Z,8.63
2022-11-24T23:54:09.636Z,6.93
2022-11-24T23:56:36.691Z,8.13
2022-11-24T23:59:04.509Z,7.65
